Time;durP1;ratioP1;P1;durP2;ratioP2;P2;SDS_P1;SDS_P2;PMS_P1;PMS_P2;Temp;Humidity;BMP_temperature;BMP_pressure;BME280_temperature;BME280_humidity;BME280_pressure;Samples;Min_cycle;Max_cycle;Signal;HPM_P1;HPM_P2
2022/11/04 00:02:43;;;;;;;;;;;;;;;10.25;100.00;100263.09;5589492;31;34258;-68
2022/11/04 00:05:50;;;;;;;;;;;;;;;10.24;100.00;100257.97;5576022;31;34182;-69
2022/11/04 00:08:57;;;;;;;;;;;;;;;10.19;100.00;100255.81;5589497;31;34593;-68
2022/11/04 00:12:24;;;;;;;;;;;;;;;10.25;100.00;100257.81;5589468;31;34085;-68
2022/11/04 00:19:01;;;;;;;;;;;;;;;10.25;100.00;100244.53;5589374;31;34167;-68
2022/11/04 00:28:57;;;;;;;;;;;;;;;10.17;100.00;100227.81;5589129;31;34831;-68
2022/11/04 00:35:30;;;;;;;;;;;;;;;10.23;100.00;100216.53;5589004;31;34171;-68
2022/11/04 00:38:40;;;;;;;;;;;;;;;10.22;100.00;100206.91;5588968;31;34592;-68
2022/11/04 00:41:47;;;;;;;;;;;;;;;10.23;100.00;100201.47;5588955;31;34175;-68
2022/11/04 00:44:54;;;;;;;;;;;;;;;10.44;100.00;100208.84;5575115;31;35552;-68
2022/11/04 00:48:04;;;;;;;;;;;;;;;10.29;100.00;100194.66;5588805;31;34124;-67
2022/11/04 00:51:12;;;;;;;;;;;;;;;10.19;100.00;100191.34;5574404;31;35467;-68
2022/11/04 00:54:18;;;;;;;;;;;;;;;10.16;100.00;100187.25;5588586;31;34513;-68
2022/11/04 00:57:26;;;;;;;;;;;;;;;10.16;100.00;100179.28;5588622;31;34833;-68
2022/11/04 01:00:31;;;;;;;;;;;;;;;10.25;100.00;100186.22;5561852;31;34036;-68
2022/11/04 01:03:39;;;;;;;;;;;;;;;10.22;100.00;100169.81;5588532;31;34491;-68
2022/11/04 01:06:47;;;;;;;;;;;;;;;10.30;100.00;100167.16;5574303;31;35359;-68
2022/11/04 01:09:55;;;;;;;;;;;;;;;10.32;100.00;100162.47;5562044;31;34272;-68
2022/11/04 01:13:01;;;;;;;;;;;;;;;10.22;100.00;100180.41;5574290;31;34488;-68
2022/11/04 01:16:10;;;;;;;;;;;;;;;10.20;100.00;100193.03;5588314;31;34143;-68
2022/11/04 01:19:18;;;;;;;;;;;;;;;10.20;100.00;100175.28;5588207;31;34214;-68
2022/11/04 01:22:27;;;;;;;;;;;;;;;10.25;100.00;100156.22;5588152;31;34279;-68
2022/11/04 01:25:32;;;;;;;;;;;;;;;10.30;100.00;100157.38;5588156;31;34613;-68
2022/11/04 01:28:38;;;;;;;;;;;;;;;10.27;100.00;100157.69;5575995;31;34330;-68
2022/11/04 01:31:45;;;;;;;;;;;;;;;10.30;100.00;100160.03;5591054;31;34916;-68
2022/11/04 01:34:55;;;;;;;;;;;;;;;10.33;100.00;100154.38;5577050;31;34400;-68
2022/11/04 01:38:03;;;;;;;;;;;;;;;10.38;100.00;100146.72;5577729;31;34123;-68
2022/11/04 01:41:17;;;;;;;;;;;;;;;10.44;100.00;100148.69;5576788;31;34415;-68
2022/11/04 01:44:41;;;;;;;;;;;;;;;10.56;100.00;100137.69;5577211;31;34815;-68
2022/11/04 01:47:54;;;;;;;;;;;;;;;10.56;100.00;100129.72;5590859;31;34792;-68
2022/11/04 01:51:02;;;;;;;;;;;;;;;10.53;100.00;100127.44;5590882;31;34777;-68
2022/11/04 01:54:10;;;;;;;;;;;;;;;10.51;100.00;100118.81;5590796;31;34693;-68
2022/11/04 01:57:22;;;;;;;;;;;;;;;10.32;100.00;100101.50;5590758;31;34423;-68
2022/11/04 02:00:30;;;;;;;;;;;;;;;10.34;100.00;100089.72;5577362;31;34757;-68
2022/11/04 02:03:48;;;;;;;;;;;;;;;10.38;100.00;100084.91;5591016;31;34255;-68
2022/11/04 02:06:57;;;;;;;;;;;;;;;10.49;100.00;100073.91;5590515;31;34837;-68
2022/11/04 02:10:08;;;;;;;;;;;;;;;10.38;100.00;100083.06;5590998;31;34540;-68
2022/11/04 02:13:16;;;;;;;;;;;;;;;10.41;100.00;100085.38;5590638;31;34580;-68
2022/11/04 02:16:31;;;;;;;;;;;;;;;10.38;100.00;100083.06;5576596;31;35094;-68
2022/11/04 02:19:55;;;;;;;;;;;;;;;10.35;100.00;100075.47;5590640;31;34866;-69
2022/11/04 02:23:16;;;;;;;;;;;;;;;10.44;100.00;100079.75;5590534;31;34844;-69
2022/11/04 02:26:40;;;;;;;;;;;;;;;10.43;100.00;100080.72;5590463;31;34236;-68
2022/11/04 02:29:51;;;;;;;;;;;;;;;10.38;100.00;100064.50;5590537;31;34146;-68
2022/11/04 02:33:31;;;;;;;;;;;;;;;10.45;100.00;100064.66;5590465;31;34111;-68
2022/11/04 02:36:50;;;;;;;;;;;;;;;10.44;100.00;100065.66;5558847;31;34801;-68
2022/11/04 02:40:00;;;;;;;;;;;;;;;10.35;100.00;100051.63;5590033;31;34123;-68
2022/11/04 02:43:27;;;;;;;;;;;;;;;10.37;100.00;100054.91;5564285;31;35522;-68
2022/11/04 02:46:36;;;;;;;;;;;;;;;10.43;100.00;100048.91;5590356;31;34248;-69
2022/11/04 02:49:42;;;;;;;;;;;;;;;10.35;100.00;100029.56;5590312;31;34100;-68
2022/11/04 02:52:52;;;;;;;;;;;;;;;10.29;100.00;100027.63;5590350;31;34796;-68
2022/11/04 02:56:01;;;;;;;;;;;;;;;10.34;100.00;100027.91;5576311;31;34140;-68
2022/11/04 02:59:09;;;;;;;;;;;;;;;10.23;100.00;100025.66;5590410;31;33969;-68
2022/11/04 03:02:18;;;;;;;;;;;;;;;10.29;100.00;100030.28;5576637;31;34363;-68
2022/11/04 03:05:30;;;;;;;;;;;;;;;10.17;100.00;100037.78;5590209;31;34649;-68
2022/11/04 03:08:37;;;;;;;;;;;;;;;10.27;100.00;100037.56;5589883;31;33998;-68
2022/11/04 03:11:47;;;;;;;;;;;;;;;10.23;100.00;100031.78;5590147;31;34166;-69
2022/11/04 03:15:00;;;;;;;;;;;;;;;10.20;100.00;100033.97;5590133;31;34306;-68
2022/11/04 03:18:19;;;;;;;;;;;;;;;10.22;100.00;100031.94;5590051;31;34116;-68
2022/11/04 03:21:30;;;;;;;;;;;;;;;10.16;100.00;100022.88;5590049;31;34879;-68
2022/11/04 03:24:36;;;;;;;;;;;;;;;10.22;100.00;100018.69;5590176;31;34798;-69
2022/11/04 03:27:57;;;;;;;;;;;;;;;10.16;100.00;99999.03;5575978;31;34491;-68
2022/11/04 03:31:05;;;;;;;;;;;;;;;10.19;100.00;99998.69;5589974;31;34240;-69
2022/11/04 03:34:11;;;;;;;;;;;;;;;10.23;100.00;99980.59;5589873;31;34322;-68
2022/11/04 03:37:21;;;;;;;;;;;;;;;10.21;100.00;99993.22;5589838;31;34196;-68
2022/11/04 03:40:29;;;;;;;;;;;;;;;10.15;100.00;99992.03;5589842;31;34273;-68
2022/11/04 03:43:36;;;;;;;;;;;;;;;10.09;100.00;99991.91;5589742;31;34735;-69
2022/11/04 03:46:45;;;;;;;;;;;;;;;10.13;100.00;99982.59;5589882;31;34808;-69
2022/11/04 03:49:52;;;;;;;;;;;;;;;10.08;100.00;99985.78;5588793;31;34750;-68
2022/11/04 03:52:59;;;;;;;;;;;;;;;10.06;100.00;99979.00;5589693;31;34561;-68
2022/11/04 03:56:09;;;;;;;;;;;;;;;9.91;100.00;99973.62;5589709;31;34866;-68
2022/11/04 03:59:34;;;;;;;;;;;;;;;10.00;100.00;99967.28;5590038;31;34375;-68
2022/11/04 04:03:10;;;;;;;;;;;;;;;9.94;100.00;99958.19;5576183;31;34330;-69
2022/11/04 04:06:20;;;;;;;;;;;;;;;9.90;100.00;99964.00;5515987;31;1318109;-69
2022/11/04 04:09:50;;;;;;;;;;;;;;;9.83;100.00;99963.87;5589572;31;34163;-68
2022/11/04 04:12:58;;;;;;;;;;;;;;;9.78;100.00;99947.66;5589508;31;34494;-68
2022/11/04 04:16:08;;;;;;;;;;;;;;;9.82;100.00;99937.56;5589413;31;34538;-68
2022/11/04 04:19:19;;;;;;;;;;;;;;;9.81;100.00;99933.28;5589715;31;34255;-69
2022/11/04 04:22:28;;;;;;;;;;;;;;;9.77;100.00;99931.97;5589240;31;34141;-69
2022/11/04 04:29:03;;;;;;;;;;;;;;;9.73;100.00;99928.03;5575153;31;35047;-69
2022/11/04 04:32:12;;;;;;;;;;;;;;;9.68;100.00;99925.06;5575040;31;35359;-69
2022/11/04 04:35:42;;;;;;;;;;;;;;;9.78;100.00;99926.47;5589237;31;34847;-69
2022/11/04 04:45:52;;;;;;;;;;;;;;;9.75;100.00;99916.25;5588814;31;34861;-69
2022/11/04 04:49:05;;;;;;;;;;;;;;;9.64;100.00;99910.50;5588977;31;34352;-69
2022/11/04 04:52:13;;;;;;;;;;;;;;;9.67;100.00;99905.69;5574448;31;33973;-68
2022/11/04 04:55:21;;;;;;;;;;;;;;;9.73;100.00;99907.63;5588780;31;34258;-69
2022/11/04 04:58:28;;;;;;;;;;;;;;;9.76;100.00;99911.78;5588755;31;34763;-69
2022/11/04 05:01:35;;;;;;;;;;;;;;;9.73;100.00;99902.34;5589313;31;34140;-69
2022/11/04 05:04:42;;;;;;;;;;;;;;;9.61;100.00;99901.09;5577497;31;34265;-69
2022/11/04 05:07:49;;;;;;;;;;;;;;;9.62;100.00;99896.63;5591102;31;34834;-69
2022/11/04 05:10:54;;;;;;;;;;;;;;;9.64;100.00;99894.59;5577076;31;32892;-69
2022/11/04 05:14:04;;;;;;;;;;;;;;;9.58;100.00;99906.75;5577822;31;34234;-68
2022/11/04 05:17:12;;;;;;;;;;;;;;;9.55;100.00;99910.53;5577149;31;35643;-68
2022/11/04 05:20:19;;;;;;;;;;;;;;;9.50;100.00;99912.88;5591153;31;34379;-69
2022/11/04 05:23:24;;;;;;;;;;;;;;;9.53;100.00;99922.31;5591146;31;34154;-69
2022/11/04 05:26:31;;;;;;;;;;;;;;;9.63;100.00;99916.81;5577299;31;34158;-69
2022/11/04 05:29:36;;;;;;;;;;;;;;;9.58;100.00;99920.78;5591055;31;34777;-69
2022/11/04 05:32:44;;;;;;;;;;;;;;;9.56;100.00;99922.78;5590980;31;34103;-69
2022/11/04 05:35:52;;;;;;;;;;;;;;;9.67;100.00;99920.75;5591035;31;34146;-69
2022/11/04 05:39:01;;;;;;;;;;;;;;;9.57;100.00;99923.63;5590786;31;34587;-68
2022/11/04 05:42:09;;;;;;;;;;;;;;;9.52;100.00;99918.84;5590623;31;34485;-70
2022/11/04 05:45:14;;;;;;;;;;;;;;;9.51;100.00;99919.84;5590759;31;34682;-70
2022/11/04 05:48:19;;;;;;;;;;;;;;;9.50;100.00;99912.88;5576960;31;35112;-69
2022/11/04 05:51:26;;;;;;;;;;;;;;;9.52;100.00;99897.66;5590768;31;34381;-69
2022/11/04 05:54:32;;;;;;;;;;;;;;;9.58;100.00;99891.66;5591031;31;34173;-69
2022/11/04 05:57:37;;;;;;;;;;;;;;;9.49;100.00;99905.09;5577143;31;34793;-69
2022/11/04 06:00:42;;;;;;;;;;;;;;;9.47;100.00;99899.16;5590429;31;34285;-70
2022/11/04 06:03:48;;;;;;;;;;;;;;;9.49;100.00;99905.09;5576714;31;34258;-70
2022/11/04 06:06:54;;;;;;;;;;;;;;;9.45;100.00;99909.09;5590361;31;34223;-69
2022/11/04 06:10:00;;;;;;;;;;;;;;;9.39;100.00;99917.75;5590545;31;34247;-69
2022/11/04 06:13:05;;;;;;;;;;;;;;;9.40;100.00;99922.00;5589886;31;34876;-69
2022/11/04 06:16:11;;;;;;;;;;;;;;;9.32;100.00;99922.88;5590480;31;34810;-69
2022/11/04 06:19:15;;;;;;;;;;;;;;;9.41;100.00;99931.63;5576860;31;35282;-69
2022/11/04 06:22:22;;;;;;;;;;;;;;;9.40;100.00;99932.59;5576413;31;35482;-69
2022/11/04 06:25:25;;;;;;;;;;;;;;;9.43;100.00;99927.81;5590519;31;34153;-69
2022/11/04 06:28:30;;;;;;;;;;;;;;;9.50;100.00;99920.00;5576647;31;32672;-69
2022/11/04 06:31:35;;;;;;;;;;;;;;;9.38;100.00;99924.84;5590337;31;34867;-69
2022/11/04 06:34:39;;;;;;;;;;;;;;;9.47;100.00;99933.59;5575917;31;34374;-69
2022/11/04 06:37:42;;;;;;;;;;;;;;;9.46;100.00;99931.94;5562861;31;34150;-69
2022/11/04 06:40:45;;;;;;;;;;;;;;;9.50;100.00;99934.06;5576153;31;34118;-69
2022/11/04 06:43:47;;;;;;;;;;;;;;;9.42;100.00;99935.91;5589745;31;34227;-68
2022/11/04 06:46:52;;;;;;;;;;;;;;;9.56;100.00;99940.50;5589505;31;34789;-68
2022/11/04 06:49:55;;;;;;;;;;;;;;;9.54;100.00;99937.19;5589755;31;34105;-68
2022/11/04 06:52:58;;;;;;;;;;;;;;;9.52;100.00;99931.25;5562436;31;34277;-68
2022/11/04 06:56:02;;;;;;;;;;;;;;;9.46;100.00;99929.28;5574847;31;36133;-68
2022/11/04 06:59:06;;;;;;;;;;;;;;;9.51;100.00;99926.94;5575875;31;34239;-69
2022/11/04 07:02:10;;;;;;;;;;;;;;;9.42;100.00;99925.34;5575977;31;34640;-69
2022/11/04 07:05:14;;;;;;;;;;;;;;;9.51;100.00;99924.31;5589974;31;34597;-68
2022/11/04 07:08:18;;;;;;;;;;;;;;;9.62;100.00;99928.41;5575816;31;34737;-69
2022/11/04 07:11:22;;;;;;;;;;;;;;;9.48;100.00;99928.12;5575829;31;34144;-69
2022/11/04 07:14:26;;;;;;;;;;;;;;;9.51;100.00;99921.66;5589800;31;34482;-69
2022/11/04 07:17:30;;;;;;;;;;;;;;;9.62;100.00;99926.56;5575785;31;33423;-70
2022/11/04 07:20:35;;;;;;;;;;;;;;;9.62;100.00;99931.87;5575556;31;33634;-68
2022/11/04 07:23:39;;;;;;;;;;;;;;;9.62;100.00;99921.28;5576282;31;34539;-68
2022/11/04 07:26:42;;;;;;;;;;;;;;;9.74;100.00;99925.19;5587930;31;34147;-68
2022/11/04 07:29:46;;;;;;;;;;;;;;;9.85;100.00;99935.41;5589526;31;34123;-68
2022/11/04 07:32:51;;;;;;;;;;;;;;;9.71;100.00;99940.59;5589599;31;34142;-69
2022/11/04 07:35:56;;;;;;;;;;;;;;;9.67;100.00;99934.84;5589612;31;34702;-68
2022/11/04 07:39:00;;;;;;;;;;;;;;;9.44;100.00;99932.09;5589604;31;34194;-68
2022/11/04 07:42:07;;;;;;;;;;;;;;;9.60;100.00;99925.91;5576509;31;34260;-69
2022/11/04 07:45:10;;;;;;;;;;;;;;;9.74;100.00;99922.53;5575653;31;35086;-69
2022/11/04 07:48:15;;;;;;;;;;;;;;;9.37;100.00;99917.06;5589786;31;34317;-70
2022/11/04 07:51:19;;;;;;;;;;;;;;;9.45;100.00;99931.09;5589568;31;34828;-69
2022/11/04 07:54:22;;;;;;;;;;;;;;;9.56;100.00;99919.31;5589659;31;34102;-69
2022/11/04 07:57:25;;;;;;;;;;;;;;;9.63;100.00;99906.22;5575446;31;34577;-69
2022/11/04 08:00:28;;;;;;;;;;;;;;;9.52;100.00;99910.91;5589609;31;34276;-69
2022/11/04 08:03:33;;;;;;;;;;;;;;;9.69;100.00;99902.84;5575504;31;35421;-69
2022/11/04 08:06:37;;;;;;;;;;;;;;;9.68;100.00;99902.06;5589405;31;34229;-70
2022/11/04 08:09:42;;;;;;;;;;;;;;;9.73;100.00;99890.94;5589524;31;34125;-70
2022/11/04 08:12:45;;;;;;;;;;;;;;;9.64;100.00;99887.47;5575518;31;34067;-68
2022/11/04 08:15:50;;;;;;;;;;;;;;;9.55;100.00;99889.34;5574862;31;34780;-68
2022/11/04 08:18:53;;;;;;;;;;;;;;;9.73;100.00;99881.13;5588967;31;35057;-68
2022/11/04 08:21:57;;;;;;;;;;;;;;;9.72;100.00;99876.03;5589240;31;34737;-67
2022/11/04 08:25:02;;;;;;;;;;;;;;;9.83;100.00;99878.25;5588971;31;34698;-68
2022/11/04 08:28:11;;;;;;;;;;;;;;;9.56;100.00;99879.59;5589191;31;34137;-68
2022/11/04 08:31:16;;;;;;;;;;;;;;;9.43;100.00;99885.47;5588972;31;34772;-68
2022/11/04 08:34:20;;;;;;;;;;;;;;;9.45;100.00;99886.09;5575206;31;33186;-69
2022/11/04 08:37:23;;;;;;;;;;;;;;;9.64;100.00;99876.88;5590164;31;35012;-68
2022/11/04 08:40:27;;;;;;;;;;;;;;;9.46;100.00;99876.31;5577124;31;34714;-70
2022/11/04 08:43:33;;;;;;;;;;;;;;;9.39;100.00;99873.53;5577221;31;34176;-68
2022/11/04 08:46:38;;;;;;;;;;;;;;;9.44;100.00;99886.28;5591361;31;34201;-69
2022/11/04 08:49:41;;;;;;;;;;;;;;;9.48;100.00;99879.63;5591123;31;34315;-68
2022/11/04 08:52:45;;;;;;;;;;;;;;;9.37;100.00;99864.13;5591143;31;34892;-67
2022/11/04 08:55:49;;;;;;;;;;;;;;;9.23;100.00;99868.31;5577178;31;34720;-68
2022/11/04 08:58:53;;;;;;;;;;;;;;;9.33;100.00;99857.53;5590949;31;34550;-68
2022/11/04 09:01:57;;;;;;;;;;;;;;;9.53;100.00;99861.41;5591146;31;35044;-69
2022/11/04 09:05:00;;;;;;;;;;;;;;;9.56;100.00;99874.28;5590877;31;34727;-68
2022/11/04 09:08:03;;;;;;;;;;;;;;;9.50;100.00;99857.28;5590739;31;34975;-68
2022/11/04 09:11:08;;;;;;;;;;;;;;;9.72;100.00;99854.84;5576741;31;34129;-68
2022/11/04 09:14:12;;;;;;;;;;;;;;;9.78;100.00;99854.16;5564160;31;33565;-68
2022/11/04 09:17:15;;;;;;;;;;;;;;;9.93;100.00;99847.91;5591044;31;34906;-68
2022/11/04 09:20:19;;;;;;;;;;;;;;;9.84;100.00;99848.13;5590579;31;34858;-69
2022/11/04 09:23:23;;;;;;;;;;;;;;;9.69;100.00;99845.41;5590423;31;35059;-68
2022/11/04 09:26:27;;;;;;;;;;;;;;;9.64;100.00;99844.28;5590977;31;34688;-68
2022/11/04 09:29:32;;;;;;;;;;;;;;;9.57;100.00;99849.47;5590905;31;34930;-68
2022/11/04 09:32:35;;;;;;;;;;;;;;;9.65;100.00;99840.63;5576970;31;34773;-69
2022/11/04 09:35:39;;;;;;;;;;;;;;;9.53;100.00;99832.28;5577009;31;34131;-68
2022/11/04 09:38:43;;;;;;;;;;;;;;;9.72;100.00;99833.66;5576822;31;34667;-68
2022/11/04 09:41:59;;;;;;;;;;;;;;;9.55;100.00;99831.09;5576832;31;35064;-68
2022/11/04 09:45:27;;;;;;;;;;;;;;;9.46;100.00;99833.97;5590528;31;34870;-68
2022/11/04 09:48:34;;;;;;;;;;;;;;;9.66;100.00;99837.81;5582638;31;34296;-68
2022/11/04 09:51:37;;;;;;;;;;;;;;;9.66;100.00;99831.69;5590668;31;34728;-68
2022/11/04 09:55:05;;;;;;;;;;;;;;;9.83;100.00;99828.75;5590491;31;34499;-68
2022/11/04 09:58:10;;;;;;;;;;;;;;;9.80;100.00;99812.41;5590689;31;34516;-68
2022/11/04 10:01:14;;;;;;;;;;;;;;;9.39;100.00;99811.84;5590700;31;34894;-68
2022/11/04 10:04:18;;;;;;;;;;;;;;;9.42;100.00;99801.72;5590600;31;34523;-70
2022/11/04 10:07:22;;;;;;;;;;;;;;;9.50;100.00;99804.31;5590472;31;34278;-68
2022/11/04 10:10:36;;;;;;;;;;;;;;;9.33;100.00;99810.72;5590602;31;34501;-70
2022/11/04 10:13:55;;;;;;;;;;;;;;;9.38;100.00;99794.31;5590554;31;34922;-70
2022/11/04 10:17:11;;;;;;;;;;;;;;;9.46;100.00;99794.25;5576931;31;34213;-69
2022/11/04 10:20:15;;;;;;;;;;;;;;;9.41;100.00;99780.72;5590618;31;34326;-71
2022/11/04 10:23:18;;;;;;;;;;;;;;;9.43;100.00;99773.44;5590528;31;34309;-72
2022/11/04 10:26:30;;;;;;;;;;;;;;;9.32;100.00;99771.19;5576591;31;34485;-71
2022/11/04 10:29:33;;;;;;;;;;;;;;;9.10;100.00;99770.94;5563474;31;35001;-72
2022/11/04 10:32:45;;;;;;;;;;;;;;;9.05;100.00;99765.34;5577046;31;34266;-71
2022/11/04 10:35:50;;;;;;;;;;;;;;;9.00;100.00;99759.78;5590336;31;34891;-71
2022/11/04 10:38:54;;;;;;;;;;;;;;;8.96;100.00;99768.22;5576675;31;34245;-70
2022/11/04 10:41:58;;;;;;;;;;;;;;;9.00;100.00;99766.88;5590283;31;34795;-71
2022/11/04 10:45:01;;;;;;;;;;;;;;;9.12;100.00;99754.91;5590040;31;34348;-70
2022/11/04 10:48:21;;;;;;;;;;;;;;;9.15;100.00;99758.03;5590673;31;34544;-71
2022/11/04 10:51:24;;;;;;;;;;;;;;;9.10;100.00;99762.22;5590417;31;34710;-70
2022/11/04 10:54:38;;;;;;;;;;;;;;;9.01;100.00;99756.13;5591475;31;34958;-70
2022/11/04 10:57:41;;;;;;;;;;;;;;;9.03;100.00;99748.84;5576451;31;34528;-72
2022/11/04 11:00:45;;;;;;;;;;;;;;;9.10;100.00;99748.97;5590141;31;34892;-72
2022/11/04 11:03:48;;;;;;;;;;;;;;;9.17;100.00;99741.97;5576723;31;34061;-70
2022/11/04 11:06:54;;;;;;;;;;;;;;;9.25;100.00;99733.97;5589632;31;34767;-70
2022/11/04 11:10:00;;;;;;;;;;;;;;;9.14;100.00;99719.34;5590098;31;34365;-70
2022/11/04 11:13:06;;;;;;;;;;;;;;;9.33;100.00;99719.87;5590458;31;34159;-71
2022/11/04 11:16:10;;;;;;;;;;;;;;;9.35;100.00;99712.56;5590009;31;34322;-70
2022/11/04 11:19:16;;;;;;;;;;;;;;;9.40;100.00;99712.88;5589982;31;34167;-70
2022/11/04 11:22:27;;;;;;;;;;;;;;;9.35;100.00;99709.94;5590079;31;34207;-70
2022/11/04 11:25:31;;;;;;;;;;;;;;;9.53;100.00;99713.13;5575865;31;34297;-70
2022/11/04 11:28:39;;;;;;;;;;;;;;;9.56;100.00;99707.47;5563193;31;34892;-70
2022/11/04 11:31:43;;;;;;;;;;;;;;;9.66;100.00;99704.56;5589892;31;34566;-70
2022/11/04 11:34:47;;;;;;;;;;;;;;;9.62;100.00;99706.78;5589778;31;34907;-70
2022/11/04 11:37:52;;;;;;;;;;;;;;;9.77;100.00;99702.34;5589788;31;34365;-70
2022/11/04 11:41:09;;;;;;;;;;;;;;;9.81;100.00;99710.75;5589772;31;34365;-70
2022/11/04 11:44:33;;;;;;;;;;;;;;;9.91;100.00;99704.19;5575405;31;34204;-70
2022/11/04 11:47:41;;;;;;;;;;;;;;;10.04;100.00;99698.25;5589744;31;34340;-69
2022/11/04 11:50:55;;;;;;;;;;;;;;;9.98;100.00;99693.69;5575573;31;34758;-69
2022/11/04 11:53:59;;;;;;;;;;;;;;;9.84;100.00;99684.72;5575489;31;33468;-69
2022/11/04 11:57:11;;;;;;;;;;;;;;;9.78;100.00;99687.28;5575729;31;32656;-69
2022/11/04 12:00:19;;;;;;;;;;;;;;;10.06;100.00;99685.66;5575433;31;35713;-69
2022/11/04 12:03:42;;;;;;;;;;;;;;;10.06;100.00;99685.66;5589718;31;34807;-69
2022/11/04 12:07:05;;;;;;;;;;;;;;;10.00;100.00;99675.78;5575021;31;33816;-70
2022/11/04 12:10:35;;;;;;;;;;;;;;;9.97;100.00;99653.09;5575049;31;34481;-69
2022/11/04 12:13:57;;;;;;;;;;;;;;;9.92;100.00;99657.34;5589422;31;34954;-69
2022/11/04 12:17:15;;;;;;;;;;;;;;;9.96;100.00;99648.84;5575650;31;35125;-69
2022/11/04 12:20:36;;;;;;;;;;;;;;;9.93;100.00;99648.34;5589222;31;34474;-68
2022/11/04 12:23:49;;;;;;;;;;;;;;;9.91;100.00;99637.13;5575626;31;34126;-68
2022/11/04 12:27:12;;;;;;;;;;;;;;;9.94;100.00;99634.09;5588833;31;34931;-69
2022/11/04 12:30:17;;;;;;;;;;;;;;;10.08;100.00;99643.87;5575454;31;34899;-69
2022/11/04 12:33:32;;;;;;;;;;;;;;;10.15;100.00;99636.88;5574642;31;32717;-69
2022/11/04 12:36:59;;;;;;;;;;;;;;;10.36;100.00;99625.56;5588952;31;34795;-69
2022/11/04 12:40:18;;;;;;;;;;;;;;;10.25;100.00;99610.94;5546464;31;34241;-69
2022/11/04 12:43:32;;;;;;;;;;;;;;;10.28;100.00;99589.34;5588817;31;34226;-70
2022/11/04 12:46:39;;;;;;;;;;;;;;;10.37;100.00;99582.09;5588644;31;34909;-69
2022/11/04 12:50:06;;;;;;;;;;;;;;;10.38;100.00;99586.41;5588723;31;34670;-69
2022/11/04 12:53:18;;;;;;;;;;;;;;;10.46;100.00;99586.28;5560062;31;34443;-69
2022/11/04 12:56:36;;;;;;;;;;;;;;;10.66;100.00;99578.56;5588718;31;34147;-69
2022/11/04 12:59:43;;;;;;;;;;;;;;;10.60;100.00;99577.47;5574568;31;34136;-69
2022/11/04 13:03:02;;;;;;;;;;;;;;;10.60;100.00;99577.47;5574749;31;34967;-69
2022/11/04 13:06:11;;;;;;;;;;;;;;;10.71;100.00;99587.59;5588237;31;34607;-69
2022/11/04 13:09:38;;;;;;;;;;;;;;;10.71;100.00;99574.34;5588170;31;34820;-69
2022/11/04 13:12:43;;;;;;;;;;;;;;;10.77;100.00;99570.94;5573986;31;35059;-69
2022/11/04 13:15:50;;;;;;;;;;;;;;;10.85;100.00;99562.84;5588209;31;34318;-69
2022/11/04 13:18:56;;;;;;;;;;;;;;;11.08;100.00;99577.78;5588214;31;34987;-69
2022/11/04 13:22:04;;;;;;;;;;;;;;;11.02;100.00;99568.75;5588297;31;34851;-69
2022/11/04 13:25:19;;;;;;;;;;;;;;;11.07;100.00;99569.00;5577054;31;34211;-69
2022/11/04 13:28:24;;;;;;;;;;;;;;;11.14;100.00;99564.53;5576682;31;34351;-69
2022/11/04 13:31:43;;;;;;;;;;;;;;;11.25;100.00;99564.03;5576803;31;35364;-70
2022/11/04 13:35:07;;;;;;;;;;;;;;;11.31;100.00;99551.84;5590891;31;34943;-70
2022/11/04 13:38:12;;;;;;;;;;;;;;;11.15;100.00;99547.59;5576930;31;34832;-69
2022/11/04 13:41:15;;;;;;;;;;;;;;;11.17;100.00;99553.56;5590902;31;34236;-69
2022/11/04 13:44:27;;;;;;;;;;;;;;;11.00;100.00;99556.66;5564384;31;34269;-68
2022/11/04 13:47:36;;;;;;;;;;;;;;;10.99;100.00;99557.69;5590681;31;34344;-70
2022/11/04 13:50:41;;;;;;;;;;;;;;;11.00;100.00;99546.03;5576711;31;34403;-70
2022/11/04 13:53:46;;;;;;;;;;;;;;;11.03;100.00;99551.81;5590862;31;34834;-68
2022/11/04 13:56:49;;;;;;;;;;;;;;;11.00;100.00;99544.22;5576965;31;34341;-68
2022/11/04 14:00:16;;;;;;;;;;;;;;;10.88;100.00;99546.56;5590681;31;34863;-69
2022/11/04 14:03:28;;;;;;;;;;;;;;;11.06;100.00;99546.09;5583434;31;34696;-69
2022/11/04 14:06:51;;;;;;;;;;;;;;;11.05;100.00;99547.12;5576305;31;34692;-68
2022/11/04 14:09:54;;;;;;;;;;;;;;;10.97;100.00;99543.78;5590267;31;34636;-69
2022/11/04 14:13:16;;;;;;;;;;;;;;;10.91;100.00;99542.69;5576213;31;34716;-69
2022/11/04 14:16:22;;;;;;;;;;;;;;;10.95;100.00;99530.69;5590246;31;34131;-69
2022/11/04 14:19:44;;;;;;;;;;;;;;;10.93;100.00;99534.56;5576501;31;35338;-69
2022/11/04 14:22:57;;;;;;;;;;;;;;;10.75;100.00;99538.47;5576430;31;35677;-69
2022/11/04 14:26:02;;;;;;;;;;;;;;;10.75;100.00;99534.97;5590202;31;34641;-69
2022/11/04 14:29:13;;;;;;;;;;;;;;;10.81;100.00;99532.41;5563839;31;34543;-70
2022/11/04 14:32:19;;;;;;;;;;;;;;;10.75;100.00;99527.03;5563580;31;33935;-69
2022/11/04 14:35:23;;;;;;;;;;;;;;;10.67;100.00;99519.19;5589740;31;34248;-70
2022/11/04 14:38:31;;;;;;;;;;;;;;;10.81;100.00;99519.13;5590156;31;34537;-70
2022/11/04 14:41:40;;;;;;;;;;;;;;;10.83;100.00;99508.34;5590050;31;34360;-70
2022/11/04 14:44:48;;;;;;;;;;;;;;;10.61;100.00;99509.34;5589994;31;34396;-69
2022/11/04 14:47:56;;;;;;;;;;;;;;;10.59;100.00;99504.25;5590190;31;34844;-70
2022/11/04 14:50:59;;;;;;;;;;;;;;;10.59;100.00;99509.56;5590133;31;34146;-69
2022/11/04 14:54:19;;;;;;;;;;;;;;;10.62;100.00;99508.34;5576248;31;32846;-70
2022/11/04 14:57:23;;;;;;;;;;;;;;;10.66;100.00;99505.13;5590099;31;34116;-70
2022/11/04 15:00:29;;;;;;;;;;;;;;;10.66;100.00;99499.81;5575572;31;35093;-70
2022/11/04 15:03:39;;;;;;;;;;;;;;;10.63;100.00;99488.78;5589696;31;34250;-69
2022/11/04 15:07:03;;;;;;;;;;;;;;;10.64;100.00;99483.28;5588995;31;34169;-69
2022/11/04 15:10:19;;;;;;;;;;;;;;;10.77;100.00;99485.22;5589340;31;34462;-68
2022/11/04 15:13:22;;;;;;;;;;;;;;;10.72;100.00;99485.78;5589389;31;34664;-69
2022/11/04 15:16:27;;;;;;;;;;;;;;;10.77;100.00;99487.88;5589156;31;34944;-68
2022/11/04 15:19:34;;;;;;;;;;;;;;;10.67;100.00;99492.69;5589503;31;34953;-69
2022/11/04 15:22:41;;;;;;;;;;;;;;;10.69;100.00;99483.53;5589573;31;34913;-70
2022/11/04 15:25:46;;;;;;;;;;;;;;;10.55;100.00;99487.06;5589677;31;34238;-69
2022/11/04 15:28:50;;;;;;;;;;;;;;;10.61;100.00;99491.59;5575513;31;34362;-69
2022/11/04 15:31:57;;;;;;;;;;;;;;;10.58;100.00;99499.13;5575538;31;33659;-69
2022/11/04 15:35:01;;;;;;;;;;;;;;;10.44;100.00;99491.03;5575530;31;33118;-70
2022/11/04 15:38:05;;;;;;;;;;;;;;;10.31;100.00;99482.94;5575765;31;34124;-70
2022/11/04 15:44:44;;;;;;;;;;;;;;;10.23;100.00;99472.44;5575939;31;33318;-70
2022/11/04 15:47:49;;;;;;;;;;;;;;;10.14;100.00;99478.03;5587872;31;35017;-70
2022/11/04 15:50:59;;;;;;;;;;;;;;;10.10;100.00;99487.34;5589803;31;34467;-70
2022/11/04 15:54:05;;;;;;;;;;;;;;;10.12;100.00;99480.06;5589543;31;34812;-70
2022/11/04 15:57:15;;;;;;;;;;;;;;;10.10;100.00;99479.41;5576012;31;34188;-71
2022/11/04 16:00:21;;;;;;;;;;;;;;;10.03;100.00;99485.44;5575486;31;34631;-70
2022/11/04 16:03:24;;;;;;;;;;;;;;;10.04;100.00;99480.97;5575800;31;34383;-71
2022/11/04 16:06:41;;;;;;;;;;;;;;;10.00;100.00;99495.59;5575542;31;34834;-71
2022/11/04 16:09:47;;;;;;;;;;;;;;;10.12;100.00;99493.31;5589360;31;34290;-71
2022/11/04 16:12:55;;;;;;;;;;;;;;;10.12;100.00;99496.75;5589469;31;34294;-71
2022/11/04 16:16:02;;;;;;;;;;;;;;;10.08;100.00;99498.13;5562342;31;35927;-71
2022/11/04 16:19:15;;;;;;;;;;;;;;;10.02;100.00;99493.59;5589324;31;34170;-70
2022/11/04 16:22:27;;;;;;;;;;;;;;;10.03;100.00;99488.09;5589304;31;34669;-70
2022/11/04 16:25:34;;;;;;;;;;;;;;;9.98;100.00;99505.56;5589485;31;34172;-70
2022/11/04 16:28:43;;;;;;;;;;;;;;;10.07;100.00;99515.03;5589240;31;34988;-71
2022/11/04 16:32:08;;;;;;;;;;;;;;;10.06;100.00;99509.94;5589104;31;34220;-71
2022/11/04 16:35:16;;;;;;;;;;;;;;;9.99;100.00;99509.84;5589498;31;34169;-71
2022/11/04 16:38:22;;;;;;;;;;;;;;;9.97;100.00;99503.94;5575168;31;34091;-71
2022/11/04 16:41:29;;;;;;;;;;;;;;;9.95;100.00;99496.16;5575546;31;34861;-69
2022/11/04 16:44:36;;;;;;;;;;;;;;;10.07;100.00;99501.00;5589185;31;34672;-70